sensor_id;sensor_type;location;lat;lon;timestamp;temperature;humidity
68801;SHT31;55784;50.734;7.086;2023-02-15T00:01:40;2.74;91.63
68801;SHT31;55784;50.734;7.086;2023-02-15T00:04:07;2.77;91.73
68801;SHT31;55784;50.734;7.086;2023-02-15T00:06:32;2.80;91.67
68801;SHT31;55784;50.734;7.086;2023-02-15T00:11:27;2.72;91.74
68801;SHT31;55784;50.734;7.086;2023-02-15T00:14:17;2.68;91.81
68801;SHT31;55784;50.734;7.086;2023-02-15T00:16:44;2.72;91.77
68801;SHT31;55784;50.734;7.086;2023-02-15T00:19:11;2.70;91.78
68801;SHT31;55784;50.734;7.086;2023-02-15T00:21:38;2.65;91.88
68801;SHT31;55784;50.734;7.086;2023-02-15T00:24:05;2.65;91.86
68801;SHT31;55784;50.734;7.086;2023-02-15T00:26:31;2.68;91.86
68801;SHT31;55784;50.734;7.086;2023-02-15T00:28:57;2.70;91.95
68801;SHT31;55784;50.734;7.086;2023-02-15T00:31:24;2.65;91.90
68801;SHT31;55784;50.734;7.086;2023-02-15T00:33:49;2.66;91.78
68801;SHT31;55784;50.734;7.086;2023-02-15T00:36:15;2.61;91.75
68801;SHT31;55784;50.734;7.086;2023-02-15T00:38:40;2.52;92.12
68801;SHT31;55784;50.734;7.086;2023-02-15T00:41:07;2.58;92.27
68801;SHT31;55784;50.734;7.086;2023-02-15T00:43:33;2.51;92.22
68801;SHT31;55784;50.734;7.086;2023-02-15T00:45:59;2.45;92.36
68801;SHT31;55784;50.734;7.086;2023-02-15T00:48:25;2.47;92.39
68801;SHT31;55784;50.734;7.086;2023-02-15T00:50:55;2.41;92.44
68801;SHT31;55784;50.734;7.086;2023-02-15T00:53:21;2.41;92.52
68801;SHT31;55784;50.734;7.086;2023-02-15T00:55:47;2.37;92.60
68801;SHT31;55784;50.734;7.086;2023-02-15T00:58:13;2.41;92.66
68801;SHT31;55784;50.734;7.086;2023-02-15T01:00:40;2.36;92.75
68801;SHT31;55784;50.734;7.086;2023-02-15T01:03:07;2.31;92.78
68801;SHT31;55784;50.734;7.086;2023-02-15T01:05:32;2.33;92.82
68801;SHT31;55784;50.734;7.086;2023-02-15T01:07:58;2.31;92.91
68801;SHT31;55784;50.734;7.086;2023-02-15T01:10:25;2.27;92.93
68801;SHT31;55784;50.734;7.086;2023-02-15T01:12:51;2.30;92.89
68801;SHT31;55784;50.734;7.086;2023-02-15T01:15:17;2.29;92.89
68801;SHT31;55784;50.734;7.086;2023-02-15T01:17:43;2.29;92.88
68801;SHT31;55784;50.734;7.086;2023-02-15T01:20:11;2.30;92.87
68801;SHT31;55784;50.734;7.086;2023-02-15T01:22:36;2.24;92.97
68801;SHT31;55784;50.734;7.086;2023-02-15T01:25:02;2.21;93.06
68801;SHT31;55784;50.734;7.086;2023-02-15T01:27:27;2.16;93.12
68801;SHT31;55784;50.734;7.086;2023-02-15T01:29:55;2.13;93.29
68801;SHT31;55784;50.734;7.086;2023-02-15T01:32:21;2.10;93.55
68801;SHT31;55784;50.734;7.086;2023-02-15T01:34:46;2.09;93.51
68801;SHT31;55784;50.734;7.086;2023-02-15T01:37:11;2.09;93.56
68801;SHT31;55784;50.734;7.086;2023-02-15T01:39:37;2.10;93.53
68801;SHT31;55784;50.734;7.086;2023-02-15T01:42:02;2.10;93.71
68801;SHT31;55784;50.734;7.086;2023-02-15T01:47:15;2.09;93.62
68801;SHT31;55784;50.734;7.086;2023-02-15T01:49:42;2.05;93.62
68801;SHT31;55784;50.734;7.086;2023-02-15T01:52:10;2.06;93.73
68801;SHT31;55784;50.734;7.086;2023-02-15T01:54:38;2.06;93.75
68801;SHT31;55784;50.734;7.086;2023-02-15T01:57:16;2.03;93.78
68801;SHT31;55784;50.734;7.086;2023-02-15T01:59:46;1.99;93.83
68801;SHT31;55784;50.734;7.086;2023-02-15T02:02:14;1.97;93.83
68801;SHT31;55784;50.734;7.086;2023-02-15T02:04:48;1.97;93.87
68801;SHT31;55784;50.734;7.086;2023-02-15T02:07:17;1.96;93.96
68801;SHT31;55784;50.734;7.086;2023-02-15T02:09:44;1.95;94.03
68801;SHT31;55784;50.734;7.086;2023-02-15T02:12:10;1.99;93.96
68801;SHT31;55784;50.734;7.086;2023-02-15T02:14:37;1.96;93.96
68801;SHT31;55784;50.734;7.086;2023-02-15T02:17:09;1.92;93.95
68801;SHT31;55784;50.734;7.086;2023-02-15T02:25:49;1.72;94.28
68801;SHT31;55784;50.734;7.086;2023-02-15T02:34:07;1.65;94.53
68801;SHT31;55784;50.734;7.086;2023-02-15T02:36:45;1.58;94.67
68801;SHT31;55784;50.734;7.086;2023-02-15T02:39:23;1.55;94.72
68801;SHT31;55784;50.734;7.086;2023-02-15T02:47:19;1.51;94.83
68801;SHT31;55784;50.734;7.086;2023-02-15T02:49:47;1.58;94.88
68801;SHT31;55784;50.734;7.086;2023-02-15T02:54:58;1.60;94.96
68801;SHT31;55784;50.734;7.086;2023-02-15T02:57:24;1.62;94.88
68801;SHT31;55784;50.734;7.086;2023-02-15T02:59:52;1.56;94.93
68801;SHT31;55784;50.734;7.086;2023-02-15T03:02:25;1.54;94.94
68801;SHT31;55784;50.734;7.086;2023-02-15T03:04:59;1.51;94.87
68801;SHT31;55784;50.734;7.086;2023-02-15T03:07:30;1.51;94.98
68801;SHT31;55784;50.734;7.086;2023-02-15T03:09:58;1.49;94.96
68801;SHT31;55784;50.734;7.086;2023-02-15T03:12:29;1.48;95.10
68801;SHT31;55784;50.734;7.086;2023-02-15T03:17:35;1.48;95.23
68801;SHT31;55784;50.734;7.086;2023-02-15T03:20:09;1.49;95.20
68801;SHT31;55784;50.734;7.086;2023-02-15T03:22:42;1.45;95.18
68801;SHT31;55784;50.734;7.086;2023-02-15T03:25:19;1.41;95.28
68801;SHT31;55784;50.734;7.086;2023-02-15T03:27:52;1.35;95.43
68801;SHT31;55784;50.734;7.086;2023-02-15T03:30:20;1.36;95.64
68801;SHT31;55784;50.734;7.086;2023-02-15T03:32:48;1.34;95.55
68801;SHT31;55784;50.734;7.086;2023-02-15T03:35:15;1.28;95.56
68801;SHT31;55784;50.734;7.086;2023-02-15T03:37:43;1.30;95.57
68801;SHT31;55784;50.734;7.086;2023-02-15T03:43:02;1.27;95.84
68801;SHT31;55784;50.734;7.086;2023-02-15T03:45:31;1.27;95.81
68801;SHT31;55784;50.734;7.086;2023-02-15T03:47:59;1.27;95.86
68801;SHT31;55784;50.734;7.086;2023-02-15T03:50:29;1.27;95.79
68801;SHT31;55784;50.734;7.086;2023-02-15T03:53:16;1.24;95.94
68801;SHT31;55784;50.734;7.086;2023-02-15T03:55:46;1.27;95.94
68801;SHT31;55784;50.734;7.086;2023-02-15T03:58:12;1.30;95.96
68801;SHT31;55784;50.734;7.086;2023-02-15T04:00:59;1.28;95.74
68801;SHT31;55784;50.734;7.086;2023-02-15T04:06:18;1.18;95.99
68801;SHT31;55784;50.734;7.086;2023-02-15T04:08:44;1.17;96.04
68801;SHT31;55784;50.734;7.086;2023-02-15T04:11:27;1.23;96.11
68801;SHT31;55784;50.734;7.086;2023-02-15T04:13:53;1.21;96.08
68801;SHT31;55784;50.734;7.086;2023-02-15T04:16:22;1.24;96.03
68801;SHT31;55784;50.734;7.086;2023-02-15T04:18:48;1.23;96.15
68801;SHT31;55784;50.734;7.086;2023-02-15T04:21:32;1.20;96.09
68801;SHT31;55784;50.734;7.086;2023-02-15T04:24:16;1.15;96.07
68801;SHT31;55784;50.734;7.086;2023-02-15T04:27:00;1.17;96.05
68801;SHT31;55784;50.734;7.086;2023-02-15T04:29:29;1.18;96.12
68801;SHT31;55784;50.734;7.086;2023-02-15T04:31:56;1.15;96.14
68801;SHT31;55784;50.734;7.086;2023-02-15T04:34:22;1.13;96.15
68801;SHT31;55784;50.734;7.086;2023-02-15T04:36:47;1.11;96.24
68801;SHT31;55784;50.734;7.086;2023-02-15T04:39:14;1.08;96.19
68801;SHT31;55784;50.734;7.086;2023-02-15T04:41:40;1.14;96.16
68801;SHT31;55784;50.734;7.086;2023-02-15T04:44:06;1.17;96.15
68801;SHT31;55784;50.734;7.086;2023-02-15T04:46:31;1.14;96.13
68801;SHT31;55784;50.734;7.086;2023-02-15T04:48:57;1.09;96.14
68801;SHT31;55784;50.734;7.086;2023-02-15T04:51:23;1.13;96.27
68801;SHT31;55784;50.734;7.086;2023-02-15T04:53:48;1.09;96.20
68801;SHT31;55784;50.734;7.086;2023-02-15T04:56:14;1.07;96.38
68801;SHT31;55784;50.734;7.086;2023-02-15T04:58:39;1.09;96.36
68801;SHT31;55784;50.734;7.086;2023-02-15T05:01:08;1.13;96.29
68801;SHT31;55784;50.734;7.086;2023-02-15T05:03:33;1.09;96.31
68801;SHT31;55784;50.734;7.086;2023-02-15T05:05:59;1.14;96.25
68801;SHT31;55784;50.734;7.086;2023-02-15T05:08:24;1.17;96.26
68801;SHT31;55784;50.734;7.086;2023-02-15T05:10:50;1.13;96.25
68801;SHT31;55784;50.734;7.086;2023-02-15T05:13:16;1.08;96.31
68801;SHT31;55784;50.734;7.086;2023-02-15T05:15:41;1.07;96.34
68801;SHT31;55784;50.734;7.086;2023-02-15T05:18:09;1.05;96.34
68801;SHT31;55784;50.734;7.086;2023-02-15T05:20:34;1.07;96.29
68801;SHT31;55784;50.734;7.086;2023-02-15T05:23:00;1.08;96.30
68801;SHT31;55784;50.734;7.086;2023-02-15T05:25:25;1.11;96.30
68801;SHT31;55784;50.734;7.086;2023-02-15T05:28:12;1.07;96.26
68801;SHT31;55784;50.734;7.086;2023-02-15T05:30:50;1.03;96.38
68801;SHT31;55784;50.734;7.086;2023-02-15T05:33:17;1.03;96.44
68801;SHT31;55784;50.734;7.086;2023-02-15T05:35:43;1.00;96.48
68801;SHT31;55784;50.734;7.086;2023-02-15T05:38:08;0.98;96.45
68801;SHT31;55784;50.734;7.086;2023-02-15T05:40:34;1.01;96.44
68801;SHT31;55784;50.734;7.086;2023-02-15T05:43:00;0.95;96.50
68801;SHT31;55784;50.734;7.086;2023-02-15T05:45:25;0.95;96.50
68801;SHT31;55784;50.734;7.086;2023-02-15T05:47:50;0.98;96.53
68801;SHT31;55784;50.734;7.086;2023-02-15T05:50:16;0.98;96.52
68801;SHT31;55784;50.734;7.086;2023-02-15T05:52:41;0.98;96.54
68801;SHT31;55784;50.734;7.086;2023-02-15T05:55:07;1.01;96.39
68801;SHT31;55784;50.734;7.086;2023-02-15T05:57:34;1.01;96.44
68801;SHT31;55784;50.734;7.086;2023-02-15T05:59:59;0.97;96.46
68801;SHT31;55784;50.734;7.086;2023-02-15T06:02:25;0.98;96.44
68801;SHT31;55784;50.734;7.086;2023-02-15T06:04:50;1.00;96.45
68801;SHT31;55784;50.734;7.086;2023-02-15T06:07:16;0.97;96.44
68801;SHT31;55784;50.734;7.086;2023-02-15T06:12:08;0.91;96.60
68801;SHT31;55784;50.734;7.086;2023-02-15T06:14:33;0.93;96.61
68801;SHT31;55784;50.734;7.086;2023-02-15T06:16:59;0.98;96.48
68801;SHT31;55784;50.734;7.086;2023-02-15T06:19:24;1.00;96.42
68801;SHT31;55784;50.734;7.086;2023-02-15T06:21:49;0.94;96.49
68801;SHT31;55784;50.734;7.086;2023-02-15T06:24:15;0.94;96.52
68801;SHT31;55784;50.734;7.086;2023-02-15T06:26:40;0.94;96.59
68801;SHT31;55784;50.734;7.086;2023-02-15T06:29:05;0.94;96.56
68801;SHT31;55784;50.734;7.086;2023-02-15T06:31:31;0.97;96.50
68801;SHT31;55784;50.734;7.086;2023-02-15T06:33:56;0.97;96.47
68801;SHT31;55784;50.734;7.086;2023-02-15T06:36:27;1.01;96.36
68801;SHT31;55784;50.734;7.086;2023-02-15T06:38:52;0.98;96.38
68801;SHT31;55784;50.734;7.086;2023-02-15T06:41:17;1.00;96.31
68801;SHT31;55784;50.734;7.086;2023-02-15T06:43:43;1.00;96.25
68801;SHT31;55784;50.734;7.086;2023-02-15T06:46:08;1.03;96.21
68801;SHT31;55784;50.734;7.086;2023-02-15T06:48:33;1.03;96.30
68801;SHT31;55784;50.734;7.086;2023-02-15T06:50:58;1.08;96.22
68801;SHT31;55784;50.734;7.086;2023-02-15T06:53:24;1.11;96.03
68801;SHT31;55784;50.734;7.086;2023-02-15T06:55:49;1.15;96.01
68801;SHT31;55784;50.734;7.086;2023-02-15T06:58:14;1.21;95.82
68801;SHT31;55784;50.734;7.086;2023-02-15T07:00:40;1.24;95.75
68801;SHT31;55784;50.734;7.086;2023-02-15T07:03:05;1.24;95.65
68801;SHT31;55784;50.734;7.086;2023-02-15T07:05:33;1.31;95.42
68801;SHT31;55784;50.734;7.086;2023-02-15T07:07:59;1.31;95.42
68801;SHT31;55784;50.734;7.086;2023-02-15T07:10:24;1.34;95.18
68801;SHT31;55784;50.734;7.086;2023-02-15T07:12:50;1.38;95.05
68801;SHT31;55784;50.734;7.086;2023-02-15T07:15:17;1.35;95.00
68801;SHT31;55784;50.734;7.086;2023-02-15T07:17:43;1.41;94.65
68801;SHT31;55784;50.734;7.086;2023-02-15T07:20:14;1.41;94.61
68801;SHT31;55784;50.734;7.086;2023-02-15T07:22:40;1.45;94.42
68801;SHT31;55784;50.734;7.086;2023-02-15T07:25:07;1.51;94.34
68801;SHT31;55784;50.734;7.086;2023-02-15T07:27:33;1.52;94.32
68801;SHT31;55784;50.734;7.086;2023-02-15T07:29:59;1.54;94.21
68801;SHT31;55784;50.734;7.086;2023-02-15T07:32:27;1.59;94.04
68801;SHT31;55784;50.734;7.086;2023-02-15T07:34:53;1.65;93.93
68801;SHT31;55784;50.734;7.086;2023-02-15T07:37:18;1.73;93.70
68801;SHT31;55784;50.734;7.086;2023-02-15T07:39:43;1.82;93.50
68801;SHT31;55784;50.734;7.086;2023-02-15T07:42:08;1.89;93.21
68801;SHT31;55784;50.734;7.086;2023-02-15T07:44:34;1.95;92.99
68801;SHT31;55784;50.734;7.086;2023-02-15T07:47:02;1.95;92.60
68801;SHT31;55784;50.734;7.086;2023-02-15T07:49:27;2.02;92.59
68801;SHT31;55784;50.734;7.086;2023-02-15T07:51:53;2.07;92.39
68801;SHT31;55784;50.734;7.086;2023-02-15T07:54:18;2.16;92.09
68801;SHT31;55784;50.734;7.086;2023-02-15T07:56:43;2.13;91.78
68801;SHT31;55784;50.734;7.086;2023-02-15T07:59:09;2.17;91.59
68801;SHT31;55784;50.734;7.086;2023-02-15T08:01:37;2.29;91.62
68801;SHT31;55784;50.734;7.086;2023-02-15T08:04:04;2.33;91.02
68801;SHT31;55784;50.734;7.086;2023-02-15T08:06:32;2.41;90.78
68801;SHT31;55784;50.734;7.086;2023-02-15T08:08:59;2.45;90.61
68801;SHT31;55784;50.734;7.086;2023-02-15T08:11:28;2.52;90.37
68801;SHT31;55784;50.734;7.086;2023-02-15T08:14:15;2.60;90.11
68801;SHT31;55784;50.734;7.086;2023-02-15T08:19:24;2.72;89.58
68801;SHT31;55784;50.734;7.086;2023-02-15T08:21:55;2.80;89.02
68801;SHT31;55784;50.734;7.086;2023-02-15T08:24:26;2.88;88.95
68801;SHT31;55784;50.734;7.086;2023-02-15T08:26:52;2.92;88.59
68801;SHT31;55784;50.734;7.086;2023-02-15T08:29:20;2.92;88.53
68801;SHT31;55784;50.734;7.086;2023-02-15T08:31:48;2.99;88.29
68801;SHT31;55784;50.734;7.086;2023-02-15T08:34:16;3.06;87.81
68801;SHT31;55784;50.734;7.086;2023-02-15T08:36:42;3.16;87.57
68801;SHT31;55784;50.734;7.086;2023-02-15T08:39:11;3.19;87.38
68801;SHT31;55784;50.734;7.086;2023-02-15T08:41:38;3.30;87.35
68801;SHT31;55784;50.734;7.086;2023-02-15T08:44:06;3.39;87.01
68801;SHT31;55784;50.734;7.086;2023-02-15T08:46:36;3.52;86.71
68801;SHT31;55784;50.734;7.086;2023-02-15T08:49:03;3.57;86.03
68801;SHT31;55784;50.734;7.086;2023-02-15T08:51:31;3.66;85.80
68801;SHT31;55784;50.734;7.086;2023-02-15T08:54:10;3.77;85.49
68801;SHT31;55784;50.734;7.086;2023-02-15T08:56:57;3.84;85.15
68801;SHT31;55784;50.734;7.086;2023-02-15T08:59:38;3.90;84.43
68801;SHT31;55784;50.734;7.086;2023-02-15T09:02:44;3.99;84.52
68801;SHT31;55784;50.734;7.086;2023-02-15T09:06:05;4.08;83.66
68801;SHT31;55784;50.734;7.086;2023-02-15T09:08:42;4.12;83.81
68801;SHT31;55784;50.734;7.086;2023-02-15T09:11:10;4.12;83.35
68801;SHT31;55784;50.734;7.086;2023-02-15T09:13:37;4.18;83.25
68801;SHT31;55784;50.734;7.086;2023-02-15T09:16:08;4.24;83.19
68801;SHT31;55784;50.734;7.086;2023-02-15T09:18:36;4.35;82.87
68801;SHT31;55784;50.734;7.086;2023-02-15T09:21:07;4.42;82.39
68801;SHT31;55784;50.734;7.086;2023-02-15T09:23:34;4.53;82.71
68801;SHT31;55784;50.734;7.086;2023-02-15T09:26:12;4.63;82.72
68801;SHT31;55784;50.734;7.086;2023-02-15T09:28:38;4.69;81.98
68801;SHT31;55784;50.734;7.086;2023-02-15T09:31:14;4.79;82.23
68801;SHT31;55784;50.734;7.086;2023-02-15T09:33:41;4.83;81.90
68801;SHT31;55784;50.734;7.086;2023-02-15T09:36:19;4.92;81.39
68801;SHT31;55784;50.734;7.086;2023-02-15T09:38:46;5.01;81.13
68801;SHT31;55784;50.734;7.086;2023-02-15T09:44:18;5.30;80.43
68801;SHT31;55784;50.734;7.086;2023-02-15T09:47:12;5.35;79.45
68801;SHT31;55784;50.734;7.086;2023-02-15T10:26:57;6.67;75.56
68801;SHT31;55784;50.734;7.086;2023-02-15T10:54:03;7.35;72.89
68801;SHT31;55784;50.734;7.086;2023-02-15T10:57:19;7.33;72.87
68801;SHT31;55784;50.734;7.086;2023-02-15T11:05:57;7.52;72.36
68801;SHT31;55784;50.734;7.086;2023-02-15T11:08:26;7.58;72.43
68801;SHT31;55784;50.734;7.086;2023-02-15T11:10:58;7.70;71.81
68801;SHT31;55784;50.734;7.086;2023-02-15T11:13:28;7.79;72.44
68801;SHT31;55784;50.734;7.086;2023-02-15T11:16:15;7.93;71.67
68801;SHT31;55784;50.734;7.086;2023-02-15T11:18:50;7.94;71.04
68801;SHT31;55784;50.734;7.086;2023-02-15T11:23:43;8.06;70.66
68801;SHT31;55784;50.734;7.086;2023-02-15T11:26:16;8.16;70.48
68801;SHT31;55784;50.734;7.086;2023-02-15T11:28:55;8.24;70.32
68801;SHT31;55784;50.734;7.086;2023-02-15T11:31:23;8.27;69.61
68801;SHT31;55784;50.734;7.086;2023-02-15T11:34:00;8.41;69.52
68801;SHT31;55784;50.734;7.086;2023-02-15T11:36:33;8.45;69.17
68801;SHT31;55784;50.734;7.086;2023-02-15T11:39:07;8.51;69.46
68801;SHT31;55784;50.734;7.086;2023-02-15T11:41:49;8.51;68.75
68801;SHT31;55784;50.734;7.086;2023-02-15T11:44:21;8.59;69.02
68801;SHT31;55784;50.734;7.086;2023-02-15T11:46:57;8.65;68.77
68801;SHT31;55784;50.734;7.086;2023-02-15T11:49:42;8.72;69.07
68801;SHT31;55784;50.734;7.086;2023-02-15T11:52:12;8.79;69.21
68801;SHT31;55784;50.734;7.086;2023-02-15T11:54:44;8.95;68.44
68801;SHT31;55784;50.734;7.086;2023-02-15T11:57:27;9.00;68.51
68801;SHT31;55784;50.734;7.086;2023-02-15T12:00:09;9.06;67.32
68801;SHT31;55784;50.734;7.086;2023-02-15T12:02:41;9.12;67.21
68801;SHT31;55784;50.734;7.086;2023-02-15T12:05:16;9.19;66.69
68801;SHT31;55784;50.734;7.086;2023-02-15T12:07:57;9.29;67.06
68801;SHT31;55784;50.734;7.086;2023-02-15T12:10:39;9.39;66.81
68801;SHT31;55784;50.734;7.086;2023-02-15T12:13:17;9.46;66.69
68801;SHT31;55784;50.734;7.086;2023-02-15T12:15:52;9.42;65.97
68801;SHT31;55784;50.734;7.086;2023-02-15T12:18:19;9.48;66.34
68801;SHT31;55784;50.734;7.086;2023-02-15T12:20:46;9.55;66.03
68801;SHT31;55784;50.734;7.086;2023-02-15T12:23:15;9.55;65.77
68801;SHT31;55784;50.734;7.086;2023-02-15T12:25:57;9.65;66.74
68801;SHT31;55784;50.734;7.086;2023-02-15T12:28:38;9.73;66.26
68801;SHT31;55784;50.734;7.086;2023-02-15T12:31:21;9.74;65.71
68801;SHT31;55784;50.734;7.086;2023-02-15T12:33:54;9.81;65.92
68801;SHT31;55784;50.734;7.086;2023-02-15T12:37:07;9.85;65.47
68801;SHT31;55784;50.734;7.086;2023-02-15T12:39:54;9.93;65.47
68801;SHT31;55784;50.734;7.086;2023-02-15T12:42:23;9.95;65.29
68801;SHT31;55784;50.734;7.086;2023-02-15T12:45:01;9.98;65.58
68801;SHT31;55784;50.734;7.086;2023-02-15T12:47:29;9.97;64.66
68801;SHT31;55784;50.734;7.086;2023-02-15T12:50:15;10.04;65.24
68801;SHT31;55784;50.734;7.086;2023-02-15T12:52:48;10.06;65.09
68801;SHT31;55784;50.734;7.086;2023-02-15T12:55:25;10.05;64.75
68801;SHT31;55784;50.734;7.086;2023-02-15T12:58:18;10.14;66.66
68801;SHT31;55784;50.734;7.086;2023-02-15T13:01:14;10.25;65.10
68801;SHT31;55784;50.734;7.086;2023-02-15T13:04:12;10.32;66.33
68801;SHT31;55784;50.734;7.086;2023-02-15T13:06:49;10.35;64.58
68801;SHT31;55784;50.734;7.086;2023-02-15T13:09:41;10.44;64.79
68801;SHT31;55784;50.734;7.086;2023-02-15T13:19:55;10.62;64.00
68801;SHT31;55784;50.734;7.086;2023-02-15T14:11:53;10.99;65.08
68801;SHT31;55784;50.734;7.086;2023-02-15T14:14:36;11.00;64.51
68801;SHT31;55784;50.734;7.086;2023-02-15T14:19:52;11.03;64.89
68801;SHT31;55784;50.734;7.086;2023-02-15T14:22:37;11.00;64.86
68801;SHT31;55784;50.734;7.086;2023-02-15T14:25:35;11.00;65.03
68801;SHT31;55784;50.734;7.086;2023-02-15T14:30:39;10.95;65.11
68801;SHT31;55784;50.734;7.086;2023-02-15T14:33:29;10.89;65.66
68801;SHT31;55784;50.734;7.086;2023-02-15T14:35:56;10.96;65.61
68801;SHT31;55784;50.734;7.086;2023-02-15T14:41:29;10.96;65.67
68801;SHT31;55784;50.734;7.086;2023-02-15T14:44:27;10.92;65.63
68801;SHT31;55784;50.734;7.086;2023-02-15T14:49:23;10.90;65.94
68801;SHT31;55784;50.734;7.086;2023-02-15T15:02:12;10.79;66.50
68801;SHT31;55784;50.734;7.086;2023-02-15T15:04:45;10.76;66.63
68801;SHT31;55784;50.734;7.086;2023-02-15T15:07:26;10.75;66.64
68801;SHT31;55784;50.734;7.086;2023-02-15T15:12:49;10.72;66.79
68801;SHT31;55784;50.734;7.086;2023-02-15T15:17:54;10.72;67.25
68801;SHT31;55784;50.734;7.086;2023-02-15T15:48:29;10.34;69.15
68801;SHT31;55784;50.734;7.086;2023-02-15T16:04:45;10.04;70.25
68801;SHT31;55784;50.734;7.086;2023-02-15T16:18:18;9.87;70.78
68801;SHT31;55784;50.734;7.086;2023-02-15T16:47:23;8.95;73.32
68801;SHT31;55784;50.734;7.086;2023-02-15T16:50:41;8.86;73.52
68801;SHT31;55784;50.734;7.086;2023-02-15T17:15:25;8.57;74.60
68801;SHT31;55784;50.734;7.086;2023-02-15T17:25:18;8.44;74.87
68801;SHT31;55784;50.734;7.086;2023-02-15T17:27:53;8.47;75.19
68801;SHT31;55784;50.734;7.086;2023-02-15T17:30:28;8.40;74.88
68801;SHT31;55784;50.734;7.086;2023-02-15T17:33:03;8.33;74.84
68801;SHT31;55784;50.734;7.086;2023-02-15T17:35:31;8.31;74.89
68801;SHT31;55784;50.734;7.086;2023-02-15T17:38:17;8.27;75.04
68801;SHT31;55784;50.734;7.086;2023-02-15T17:40:44;8.21;75.27
68801;SHT31;55784;50.734;7.086;2023-02-15T17:43:10;8.18;75.43
68801;SHT31;55784;50.734;7.086;2023-02-15T17:45:48;8.17;75.18
68801;SHT31;55784;50.734;7.086;2023-02-15T17:55:07;8.18;74.88
68801;SHT31;55784;50.734;7.086;2023-02-15T18:01:38;8.06;75.29
68801;SHT31;55784;50.734;7.086;2023-02-15T18:04:41;8.01;75.47
68801;SHT31;55784;50.734;7.086;2023-02-15T18:14:20;7.91;75.84
68801;SHT31;55784;50.734;7.086;2023-02-15T18:27:37;7.89;75.74
68801;SHT31;55784;50.734;7.086;2023-02-15T18:30:07;7.79;75.86
68801;SHT31;55784;50.734;7.086;2023-02-15T18:39:44;7.63;76.24
68801;SHT31;55784;50.734;7.086;2023-02-15T18:49:05;7.51;76.86
68801;SHT31;55784;50.734;7.086;2023-02-15T18:58:39;7.45;77.24
68801;SHT31;55784;50.734;7.086;2023-02-15T19:18:05;7.12;77.81
68801;SHT31;55784;50.734;7.086;2023-02-15T19:20:51;7.11;77.99
68801;SHT31;55784;50.734;7.086;2023-02-15T19:23:22;7.08;78.19
68801;SHT31;55784;50.734;7.086;2023-02-15T19:26:02;7.08;78.13
68801;SHT31;55784;50.734;7.086;2023-02-15T19:28:32;7.05;78.14
68801;SHT31;55784;50.734;7.086;2023-02-15T19:30:58;7.00;78.25
68801;SHT31;55784;50.734;7.086;2023-02-15T19:33:24;7.00;78.36
68801;SHT31;55784;50.734;7.086;2023-02-15T19:35:52;6.97;78.43
68801;SHT31;55784;50.734;7.086;2023-02-15T19:38:25;6.94;78.51
68801;SHT31;55784;50.734;7.086;2023-02-15T19:41:00;6.91;78.54
68801;SHT31;55784;50.734;7.086;2023-02-15T19:43:26;6.87;78.59
68801;SHT31;55784;50.734;7.086;2023-02-15T19:45:52;6.79;78.78
68801;SHT31;55784;50.734;7.086;2023-02-15T19:48:18;6.77;78.92
68801;SHT31;55784;50.734;7.086;2023-02-15T19:50:45;6.73;79.02
68801;SHT31;55784;50.734;7.086;2023-02-15T19:53:21;6.69;79.21
68801;SHT31;55784;50.734;7.086;2023-02-15T19:55:46;6.67;79.33
68801;SHT31;55784;50.734;7.086;2023-02-15T19:58:12;6.60;79.50
68801;SHT31;55784;50.734;7.086;2023-02-15T20:00:38;6.58;79.65
68801;SHT31;55784;50.734;7.086;2023-02-15T20:03:04;6.58;79.68
68801;SHT31;55784;50.734;7.086;2023-02-15T20:05:30;6.54;79.84
68801;SHT31;55784;50.734;7.086;2023-02-15T20:07:58;6.50;79.91
68801;SHT31;55784;50.734;7.086;2023-02-15T20:10:27;6.56;79.87
68801;SHT31;55784;50.734;7.086;2023-02-15T20:12:53;6.54;79.90
68801;SHT31;55784;50.734;7.086;2023-02-15T20:15:33;6.47;79.98
68801;SHT31;55784;50.734;7.086;2023-02-15T20:18:00;6.43;80.03
68801;SHT31;55784;50.734;7.086;2023-02-15T20:20:35;6.41;80.07
68801;SHT31;55784;50.734;7.086;2023-02-15T20:23:08;6.39;80.20
68801;SHT31;55784;50.734;7.086;2023-02-15T20:25:36;6.33;80.34
68801;SHT31;55784;50.734;7.086;2023-02-15T20:28:01;6.30;80.50
68801;SHT31;55784;50.734;7.086;2023-02-15T20:30:30;6.30;80.57
68801;SHT31;55784;50.734;7.086;2023-02-15T20:32:55;6.30;80.54
68801;SHT31;55784;50.734;7.086;2023-02-15T20:35:25;6.26;80.58
68801;SHT31;55784;50.734;7.086;2023-02-15T20:37:54;6.23;80.65
68801;SHT31;55784;50.734;7.086;2023-02-15T20:40:26;6.16;80.79
68801;SHT31;55784;50.734;7.086;2023-02-15T20:42:52;6.20;80.90
68801;SHT31;55784;50.734;7.086;2023-02-15T20:45:22;6.13;80.95
68801;SHT31;55784;50.734;7.086;2023-02-15T20:47:49;6.17;81.00
68801;SHT31;55784;50.734;7.086;2023-02-15T20:50:27;6.15;81.03
68801;SHT31;55784;50.734;7.086;2023-02-15T20:52:54;6.17;81.08
68801;SHT31;55784;50.734;7.086;2023-02-15T20:55:26;6.17;80.94
68801;SHT31;55784;50.734;7.086;2023-02-15T20:57:51;6.10;80.98
68801;SHT31;55784;50.734;7.086;2023-02-15T21:00:20;6.03;81.07
68801;SHT31;55784;50.734;7.086;2023-02-15T21:03:06;6.01;81.21
68801;SHT31;55784;50.734;7.086;2023-02-15T21:05:34;6.03;81.24
68801;SHT31;55784;50.734;7.086;2023-02-15T21:08:00;6.01;81.23
68801;SHT31;55784;50.734;7.086;2023-02-15T21:10:28;5.98;81.27
68801;SHT31;55784;50.734;7.086;2023-02-15T21:12:55;5.92;81.45
68801;SHT31;55784;50.734;7.086;2023-02-15T21:15:25;5.85;81.68
68801;SHT31;55784;50.734;7.086;2023-02-15T21:17:51;5.76;81.77
68801;SHT31;55784;50.734;7.086;2023-02-15T21:20:17;5.72;81.94
68801;SHT31;55784;50.734;7.086;2023-02-15T21:22:43;5.68;82.08
68801;SHT31;55784;50.734;7.086;2023-02-15T21:25:19;5.68;82.20
68801;SHT31;55784;50.734;7.086;2023-02-15T21:27:46;5.62;82.22
68801;SHT31;55784;50.734;7.086;2023-02-15T21:30:16;5.62;82.35
68801;SHT31;55784;50.734;7.086;2023-02-15T21:32:42;5.65;82.34
68801;SHT31;55784;50.734;7.086;2023-02-15T21:35:10;5.56;82.47
68801;SHT31;55784;50.734;7.086;2023-02-15T21:37:39;5.61;82.58
68801;SHT31;55784;50.734;7.086;2023-02-15T21:42:39;5.55;82.64
68801;SHT31;55784;50.734;7.086;2023-02-15T21:45:26;5.48;82.70
68801;SHT31;55784;50.734;7.086;2023-02-15T21:48:10;5.41;82.88
68801;SHT31;55784;50.734;7.086;2023-02-15T21:50:36;5.37;83.00
68801;SHT31;55784;50.734;7.086;2023-02-15T21:53:32;5.37;83.16
68801;SHT31;55784;50.734;7.086;2023-02-15T21:56:00;5.33;83.26
68801;SHT31;55784;50.734;7.086;2023-02-15T21:58:28;5.40;83.16
68801;SHT31;55784;50.734;7.086;2023-02-15T22:00:55;5.34;83.17
68801;SHT31;55784;50.734;7.086;2023-02-15T22:03:29;5.27;83.17
68801;SHT31;55784;50.734;7.086;2023-02-15T22:05:55;5.24;83.52
68801;SHT31;55784;50.734;7.086;2023-02-15T22:08:20;5.24;83.58
68801;SHT31;55784;50.734;7.086;2023-02-15T22:10:46;5.27;83.83
68801;SHT31;55784;50.734;7.086;2023-02-15T22:13:23;5.31;83.66
68801;SHT31;55784;50.734;7.086;2023-02-15T22:15:49;5.34;83.65
68801;SHT31;55784;50.734;7.086;2023-02-15T22:18:21;5.26;83.81
68801;SHT31;55784;50.734;7.086;2023-02-15T22:20:47;5.17;83.88
68801;SHT31;55784;50.734;7.086;2023-02-15T22:23:13;5.14;84.24